Weather reports worldwide

Advertisment
Cartagena, Spain (8434): temperature & dewpoint: 16.09.2018 23:00:00 - 22.09.2018 23:00:00 (CEST)Cartagena, Spain (8434): wind speed & gusts: 16.09.2018 23:00:00 - 22.09.2018 23:00:00 (CEST)Cartagena, Spain (8434): wind direction: 16.09.2018 23:00:00 - 22.09.2018 23:00:00 (CEST)Cartagena, Spain (8434): precipitation: 16.09.2018 23:00:00 - 22.09.2018 23:00:00 (CEST)
Date & Time tt [°C] td [°C] ff [km/h] ff [kn] fx [km/h] fx [kn] dd rr [mm]
22.09.2018 23:00:00 24,8 20,9 2 1 10 5 SSW 0,0
22.09.2018 22:00:00 25,0 20,9 4 2 11 6 S 0,0
22.09.2018 21:00:00 25,2 20,9 7 4 15 8 S 0,0
22.09.2018 20:00:00 25,5 20,5 5 3 13 7 S -
22.09.2018 19:00:00 26,2 19,3 7 4 15 8 SSW 0,0
22.09.2018 18:00:00 26,7 19,3 5 3 14 8 S 0,0
22.09.2018 17:00:00 26,3 19,7 9 5 18 10 S 0,0
22.09.2018 16:00:00 26,3 19,7 6 4 16 9 S 0,0
22.09.2018 15:00:00 27,0 20,8 6 4 18 10 S 0,0
22.09.2018 14:00:00 27,1 21,2 5 3 20 11 S -
22.09.2018 13:00:00 26,9 21,0 5 3 16 9 S 0,0
22.09.2018 12:00:00 26,2 21,0 5 3 9 5 SSE 0,0
22.09.2018 11:00:00 26,5 20,8 2 1 6 4 SSE 0,0
22.09.2018 10:00:00 24,5 19,3 1 1 4 2 E 0,0
22.09.2018 09:00:00 22,0 18,4 0 0 4 2 N 0,0
22.09.2018 08:00:00 21,2 17,6 1 1 5 3 NW -
22.09.2018 07:00:00 21,5 17,5 1 1 4 2 N 0,0
22.09.2018 06:00:00 21,9 17,7 2 1 6 3 NNE 0,0
22.09.2018 05:00:00 22,4 18,2 1 1 6 3 SW 0,0
22.09.2018 04:00:00 22,3 18,1 0 0 4 2 WNW 0,0
22.09.2018 03:00:00 23,5 19,2 2 1 9 5 W 0,0
22.09.2018 02:00:00 24,4 20,5 3 2 9 5 S -
22.09.2018 01:00:00 24,6 20,7 3 2 10 5 SSE 0,0
22.09.2018 00:00:00 24,8 20,5 4 2 13 7 S 0,0
21.09.2018 23:00:00 24,9 19,9 1 1 13 7 SSE 0,0
21.09.2018 22:00:00 24,8 19,6 4 2 15 8 S 0,0
21.09.2018 21:00:00 24,9 20,4 5 3 21 12 SSW 0,0
21.09.2018 20:00:00 24,9 20,4 11 6 27 14 S -
21.09.2018 19:00:00 25,4 20,4 12 6 29 15 S 0,0
21.09.2018 18:00:00 25,8 20,6 14 8 29 15 SSW 0,0
21.09.2018 17:00:00 25,7 20,5 17 9 29 16 S 0,0
21.09.2018 16:00:00 26,3 20,8 13 7 27 15 SSW 0,0
21.09.2018 15:00:00 26,2 21,2 12 6 24 13 SSW 0,0
21.09.2018 14:00:00 26,1 20,7 9 5 26 14 SW -
21.09.2018 13:00:00 25,6 20,8 11 6 23 12 SSW 0,0
21.09.2018 12:00:00 25,7 20,7 9 5 18 10 S 0,0
21.09.2018 11:00:00 25,6 20,8 5 3 14 8 SSW 0,0
21.09.2018 10:00:00 24,7 20,2 0 0 6 3 ESE 0,0
21.09.2018 09:00:00 22,5 19,5 1 1 5 3 WNW 0,0
21.09.2018 08:00:00 21,7 18,9 0 0 6 3 NW -
21.09.2018 07:00:00 21,7 18,9 1 0 3 2 NW 0,0
21.09.2018 06:00:00 21,7 18,7 0 0 3 2 W 0,0
21.09.2018 05:00:00 22,0 18,8 2 1 4 2 WNW 0,0
21.09.2018 04:00:00 22,4 19,0 0 0 2 1 W 0,0
21.09.2018 03:00:00 22,6 19,2 2 1 5 3 WNW 0,0
21.09.2018 02:00:00 23,0 19,6 1 0 5 3 WNW -
21.09.2018 01:00:00 23,7 20,2 1 1 4 2 WSW 0,0
21.09.2018 00:00:00 24,1 20,4 2 1 5 3 W 0,0
20.09.2018 23:00:00 24,6 20,7 2 1 10 6 WSW 0,0
20.09.2018 22:00:00 24,9 20,8 5 3 12 6 SSW 0,0
20.09.2018 21:00:00 24,9 20,6 6 3 13 7 S 0,0
20.09.2018 20:00:00 25,3 20,3 7 4 16 8 S -
20.09.2018 19:00:00 26,0 20,3 9 5 16 9 S 0,0
20.09.2018 18:00:00 26,3 19,9 9 5 19 10 S 0,0
20.09.2018 17:00:00 26,6 20,0 10 5 16 9 S 0,0
20.09.2018 16:00:00 26,6 20,0 11 6 20 11 S 0,0
20.09.2018 15:00:00 27,2 21,2 8 4 19 10 S 0,0
20.09.2018 14:00:00 27,2 20,5 6 3 18 10 SSW -
20.09.2018 13:00:00 27,4 20,7 6 3 15 8 S 0,0
20.09.2018 12:00:00 27,7 20,5 1 0 10 5 NE 0,0
20.09.2018 11:00:00 26,3 20,6 3 2 10 5 NE 0,0
20.09.2018 10:00:00 25,5 21,0 5 3 9 5 N 0,0
20.09.2018 09:00:00 23,6 20,7 2 1 7 4 NNW 0,0
20.09.2018 08:00:00 23,1 20,6 2 1 8 4 N -
20.09.2018 07:00:00 23,0 20,3 2 1 8 5 NNE 0,0
20.09.2018 06:00:00 23,0 20,3 3 1 5 3 N 0,0
20.09.2018 05:00:00 23,2 20,5 2 1 8 5 WNW 0,0
20.09.2018 04:00:00 23,4 20,7 2 1 8 5 NNW 0,0
20.09.2018 03:00:00 23,7 20,8 3 2 8 4 NW 0,0
20.09.2018 02:00:00 23,9 20,8 4 2 9 5 NW -
20.09.2018 01:00:00 24,2 20,7 5 3 9 5 WNW 0,0
20.09.2018 00:00:00 25,0 21,1 3 2 8 4 N 0,0
19.09.2018 23:00:00 25,3 21,0 4 2 9 5 N 0,0
19.09.2018 22:00:00 25,5 20,7 1 1 9 5 NE 0,0
19.09.2018 21:00:00 25,3 20,8 2 1 9 5 NNE 0,0
19.09.2018 20:00:00 26,0 20,6 3 2 10 5 WSW -
19.09.2018 19:00:00 26,6 20,2 5 3 11 6 SSW 0,0
19.09.2018 18:00:00 26,4 20,0 7 4 15 8 S 0,0
19.09.2018 17:00:00 27,1 19,4 7 4 16 9 SSW 0,0
19.09.2018 16:00:00 27,7 20,0 9 5 19 10 S 0,0
19.09.2018 15:00:00 27,5 20,6 9 5 18 10 S 0,0
19.09.2018 14:00:00 27,8 21,3 6 3 15 8 SSW -
19.09.2018 13:00:00 27,5 20,8 5 3 14 8 S 0,0
19.09.2018 12:00:00 27,6 20,7 3 1 11 6 N 0,0
19.09.2018 11:00:00 27,0 21,3 4 2 12 6 N 0,0
19.09.2018 10:00:00 25,8 20,6 5 3 11 6 N 0,0
19.09.2018 09:00:00 23,9 20,8 3 1 6 4 NNE 0,0
19.09.2018 08:00:00 22,8 20,5 2 1 9 5 NNE -
19.09.2018 07:00:00 22,7 20,4 4 2 9 5 N 0,0
19.09.2018 06:00:00 22,8 20,5 3 1 12 7 NNW 0,0
19.09.2018 05:00:00 23,6 21,1 3 2 7 4 WNW 0,0
19.09.2018 04:00:00 23,8 21,1 3 2 8 5 NE 0,0
19.09.2018 03:00:00 24,3 21,4 3 2 8 5 N 0,0
19.09.2018 02:00:00 24,4 21,3 2 1 8 4 NW -
19.09.2018 01:00:00 24,9 21,4 2 1 11 6 NW 0,0
19.09.2018 00:00:00 25,3 21,4 5 3 11 6 N 0,0
18.09.2018 23:00:00 25,6 21,5 2 1 9 5 NE 0,0
18.09.2018 22:00:00 25,6 21,3 5 3 11 6 ENE 0,0
18.09.2018 21:00:00 25,8 20,8 5 3 13 7 NNE 0,0
18.09.2018 20:00:00 27,1 20,2 5 3 16 8 NNE -
18.09.2018 19:00:00 28,0 20,3 6 3 16 8 ENE 0,0
18.09.2018 18:00:00 28,6 20,1 3 2 12 6 ENE 0,0
18.09.2018 17:00:00 29,8 19,5 6 3 16 8 NE 0,0
18.09.2018 16:00:00 29,4 18,8 6 4 20 11 NE 0,0
18.09.2018 15:00:00 29,1 20,3 6 3 16 9 NE 0,0
18.09.2018 14:00:00 28,6 20,9 5 3 18 10 NE -
18.09.2018 13:00:00 28,9 20,9 7 4 20 11 NE 0,0
18.09.2018 12:00:00 27,7 20,0 6 3 17 9 N 0,0
18.09.2018 11:00:00 26,7 21,2 6 3 19 10 N 0,0
18.09.2018 10:00:00 25,5 21,6 7 4 17 9 NNW 0,0
18.09.2018 09:00:00 23,4 21,1 3 2 11 6 NNW 0,0
18.09.2018 08:00:00 23,7 21,8 2 1 10 5 NW -
18.09.2018 07:00:00 23,1 21,0 5 3 13 7 NW 0,0
18.09.2018 06:00:00 23,3 21,4 6 3 16 9 N 0,0
18.09.2018 05:00:00 23,4 21,3 6 3 14 8 NNW 0,0
18.09.2018 04:00:00 23,1 21,0 3 2 11 6 NNW 0,0
18.09.2018 03:00:00 23,4 21,3 5 3 10 5 NW 0,0
18.09.2018 02:00:00 23,6 21,3 4 2 10 6 NW -
18.09.2018 01:00:00 23,9 21,4 4 2 12 7 NW 0,0
18.09.2018 00:00:00 24,2 21,5 6 4 11 6 NW 0,0
17.09.2018 23:00:00 24,8 21,9 4 2 9 5 NNW 0,0
17.09.2018 22:00:00 25,0 21,7 6 3 13 7 N 0,0
17.09.2018 21:00:00 25,3 21,4 4 2 13 7 NNE 0,0
17.09.2018 20:00:00 25,7 20,7 6 4 18 10 NE -
17.09.2018 19:00:00 26,6 20,4 6 4 20 11 ENE 0,0
17.09.2018 18:00:00 26,5 20,3 8 4 23 12 ENE 0,0
17.09.2018 17:00:00 27,0 21,5 12 7 24 13 NE 0,0
17.09.2018 16:00:00 27,1 21,6 9 5 26 14 NE 0,0
17.09.2018 15:00:00 26,2 21,0 10 5 27 15 NE 0,0
17.09.2018 14:00:00 26,1 21,1 9 5 26 14 ENE -
17.09.2018 13:00:00 25,8 21,0 9 5 28 15 NE 0,0
17.09.2018 12:00:00 25,7 21,1 6 4 21 11 NE 0,0
17.09.2018 11:00:00 25,6 21,1 9 5 20 11 N 0,0
17.09.2018 10:00:00 24,5 20,4 4 2 13 7 NNW 0,0
17.09.2018 09:00:00 23,8 20,7 5 3 18 10 NNW 0,0
17.09.2018 08:00:00 23,3 21,0 8 4 18 10 NNW -
17.09.2018 07:00:00 23,3 21,4 7 4 15 8 N 0,0
17.09.2018 06:00:00 23,7 21,6 7 4 15 8 NW 0,1
17.09.2018 05:00:00 23,9 21,6 6 3 16 8 N 0,0
17.09.2018 04:00:00 23,9 21,6 3 2 13 7 NW 0,0
17.09.2018 03:00:00 24,1 21,6 4 2 10 6 NW 0,0
17.09.2018 02:00:00 24,2 21,5 3 2 12 7 NW -
17.09.2018 01:00:00 24,5 21,6 5 3 11 6 NNW 0,0
17.09.2018 00:00:00 24,6 21,7 4 2 12 6 N 0,0
16.09.2018 23:00:00 24,9 21,6 5 3 13 7 N 0,0

tt = temperature
td = dewpoint
ff = wind speed
fx = gusts
dd = wind direction
rr = precipitation

Next stations